BCS7550 LIMC-LGAV
Flight info
| Callsign | BCS7550 |
|---|---|
| Flight time | N/A |
| Altitude | 37000 |
| Route | ROBAS DCT IPDAB DCT LUMAV DCT NIKOL DCT KOFER DCT PINDO DCT SIGFO UM749 ROPOX |
| Aircraft | B738/M-SDE2E3FGHIRWXY/LB1 |
Departure
| Time | N/A |
|---|---|
| Airport | Milan Malpensa International Airport (LIMC) |
Arrival
| Time | 2026-05-04 05:13 |
|---|---|
| Airport | Athens Eleftherios Venizelos International Airport (LGAV) |
| Time | Latitude | Longitude | Altitude | Speed | Heading |
|---|---|---|---|---|---|
| 2026-05-04 03:04 | 44.90494 | 11.14503 | 34196 ft | 481 kts | 107° |
| 2026-05-04 03:04 | 44.89633 | 11.19020 | 34450 ft | 480 kts | 107° |
| 2026-05-04 03:04 | 44.88765 | 11.23551 | 34707 ft | 480 kts | 107° |
| 2026-05-04 03:04 | 44.87893 | 11.28090 | 34936 ft | 479 kts | 107° |
| 2026-05-04 03:05 | 44.87015 | 11.32651 | 35170 ft | 479 kts | 107° |
| 2026-05-04 03:05 | 44.86141 | 11.37183 | 35416 ft | 478 kts | 107° |
| 2026-05-04 03:05 | 44.85265 | 11.41717 | 35656 ft | 477 kts | 107° |
| 2026-05-04 03:05 | 44.84403 | 11.46167 | 35890 ft | 477 kts | 107° |
| 2026-05-04 03:06 | 44.83529 | 11.50672 | 36102 ft | 476 kts | 107° |
| 2026-05-04 03:06 | 44.82655 | 11.55170 | 36327 ft | 475 kts | 107° |
| 2026-05-04 03:06 | 44.81777 | 11.59669 | 36559 ft | 475 kts | 107° |
| 2026-05-04 03:06 | 44.80816 | 11.64111 | 36769 ft | 473 kts | 111° |
| 2026-05-04 03:07 | 44.79676 | 11.68469 | 36973 ft | 472 kts | 112° |
| 2026-05-04 03:07 | 44.78471 | 11.72769 | 37133 ft | 472 kts | 113° |
| 2026-05-04 03:07 | 44.77252 | 11.77022 | 37114 ft | 475 kts | 114° |
| 2026-05-04 03:08 | 44.74794 | 11.85640 | 37115 ft | 472 kts | 113° |
| 2026-05-04 03:08 | 44.72390 | 11.94214 | 37105 ft | 469 kts | 112° |
| 2026-05-04 03:09 | 44.70028 | 12.02696 | 37103 ft | 466 kts | 112° |
| 2026-05-04 03:09 | 44.67659 | 12.11189 | 37098 ft | 465 kts | 112° |
| 2026-05-04 03:10 | 44.65288 | 12.19657 | 37094 ft | 465 kts | 112° |
| 2026-05-04 03:10 | 44.62907 | 12.28123 | 37093 ft | 467 kts | 112° |
| 2026-05-04 03:11 | 44.60521 | 12.36578 | 37090 ft | 468 kts | 112° |
| 2026-05-04 03:11 | 44.58110 | 12.45093 | 37094 ft | 470 kts | 112° |
| 2026-05-04 03:12 | 44.55690 | 12.53608 | 37095 ft | 472 kts | 112° |
| 2026-05-04 03:12 | 44.53251 | 12.62164 | 37090 ft | 472 kts | 113° |
| 2026-05-04 03:13 | 44.50814 | 12.70682 | 37089 ft | 470 kts | 113° |
| 2026-05-04 03:13 | 44.48384 | 12.79146 | 37098 ft | 470 kts | 113° |
| 2026-05-04 03:14 | 44.45929 | 12.87670 | 37101 ft | 472 kts | 113° |
| 2026-05-04 03:14 | 44.43486 | 12.96120 | 37097 ft | 471 kts | 113° |
| 2026-05-04 03:15 | 44.41029 | 13.04592 | 37101 ft | 470 kts | 113° |
| 2026-05-04 03:15 | 44.38560 | 13.13078 | 37105 ft | 470 kts | 113° |
| 2026-05-04 03:16 | 44.36098 | 13.21511 | 37104 ft | 470 kts | 113° |
| 2026-05-04 03:16 | 44.33616 | 13.29981 | 37102 ft | 470 kts | 113° |
| 2026-05-04 03:17 | 44.31129 | 13.38444 | 37106 ft | 471 kts | 113° |
| 2026-05-04 03:17 | 44.28633 | 13.46909 | 37110 ft | 471 kts | 113° |
| 2026-05-04 03:18 | 44.26141 | 13.55329 | 37108 ft | 471 kts | 113° |
| 2026-05-04 03:18 | 44.23632 | 13.63788 | 37108 ft | 472 kts | 113° |
| 2026-05-04 03:19 | 44.20901 | 13.72049 | 37108 ft | 471 kts | 120° |
| 2026-05-04 03:19 | 44.17551 | 13.79930 | 37105 ft | 471 kts | 122° |
| 2026-05-04 03:20 | 44.14130 | 13.87735 | 37108 ft | 472 kts | 122° |
| 2026-05-04 03:20 | 44.10754 | 13.95533 | 37111 ft | 472 kts | 121° |
| 2026-05-04 03:21 | 44.07383 | 14.03395 | 37110 ft | 473 kts | 121° |
| 2026-05-04 03:21 | 44.04012 | 14.11269 | 37109 ft | 473 kts | 121° |
| 2026-05-04 03:22 | 44.00658 | 14.19081 | 37108 ft | 474 kts | 121° |
| 2026-05-04 03:22 | 43.97268 | 14.26951 | 37108 ft | 474 kts | 121° |
| 2026-05-04 03:23 | 43.93881 | 14.34789 | 37110 ft | 474 kts | 121° |
| 2026-05-04 03:23 | 43.90483 | 14.42633 | 37108 ft | 474 kts | 121° |
| 2026-05-04 03:24 | 43.87072 | 14.50485 | 37109 ft | 474 kts | 121° |
| 2026-05-04 03:24 | 43.83678 | 14.58276 | 37107 ft | 475 kts | 121° |
| 2026-05-04 03:25 | 43.80256 | 14.66110 | 37111 ft | 475 kts | 121° |
| 2026-05-04 03:25 | 43.76828 | 14.73937 | 37109 ft | 475 kts | 121° |
| 2026-05-04 03:26 | 43.73404 | 14.81734 | 37117 ft | 475 kts | 121° |
| 2026-05-04 03:26 | 43.69956 | 14.89564 | 37116 ft | 476 kts | 121° |
| 2026-05-04 03:27 | 43.66526 | 14.97334 | 37114 ft | 476 kts | 121° |
| 2026-05-04 03:27 | 43.63064 | 15.05153 | 37111 ft | 476 kts | 121° |
| 2026-05-04 03:28 | 43.60187 | 15.11635 | 37115 ft | 476 kts | 121° |
| 2026-05-04 03:28 | 43.56151 | 15.20705 | 37113 ft | 476 kts | 121° |
| 2026-05-04 03:29 | 43.53253 | 15.27201 | 37115 ft | 477 kts | 121° |
| 2026-05-04 03:29 | 43.49771 | 15.34985 | 37119 ft | 477 kts | 121° |
| 2026-05-04 03:30 | 43.46298 | 15.42729 | 37120 ft | 478 kts | 121° |
| 2026-05-04 03:30 | 43.42794 | 15.50522 | 37121 ft | 478 kts | 121° |
| 2026-05-04 03:31 | 43.39288 | 15.58298 | 37118 ft | 478 kts | 121° |
| 2026-05-04 03:31 | 43.35770 | 15.66080 | 37122 ft | 479 kts | 121° |
| 2026-05-04 03:32 | 43.32262 | 15.73820 | 37123 ft | 479 kts | 121° |
| 2026-05-04 03:32 | 43.28741 | 15.81568 | 37123 ft | 480 kts | 121° |
| 2026-05-04 03:33 | 43.25196 | 15.89348 | 37126 ft | 480 kts | 121° |
| 2026-05-04 03:33 | 43.21642 | 15.97127 | 37125 ft | 480 kts | 121° |
| 2026-05-04 03:34 | 43.18086 | 16.04888 | 37125 ft | 481 kts | 121° |
| 2026-05-04 03:34 | 43.14540 | 16.12610 | 37126 ft | 481 kts | 121° |
| 2026-05-04 03:35 | 43.10960 | 16.20382 | 37126 ft | 481 kts | 121° |
| 2026-05-04 03:35 | 43.07380 | 16.28136 | 37129 ft | 481 kts | 121° |
| 2026-05-04 03:36 | 43.03824 | 16.35818 | 37132 ft | 481 kts | 121° |
| 2026-05-04 03:36 | 43.00234 | 16.43553 | 37135 ft | 480 kts | 121° |
| 2026-05-04 03:37 | 42.96664 | 16.51223 | 37137 ft | 480 kts | 121° |
| 2026-05-04 03:37 | 42.93090 | 16.58884 | 37135 ft | 480 kts | 121° |
| 2026-05-04 03:38 | 42.89496 | 16.66568 | 37136 ft | 480 kts | 121° |
| 2026-05-04 03:38 | 42.85897 | 16.74241 | 37134 ft | 479 kts | 121° |
| 2026-05-04 03:39 | 42.82292 | 16.81909 | 37134 ft | 479 kts | 121° |
| 2026-05-04 03:39 | 42.78705 | 16.89517 | 37136 ft | 479 kts | 121° |
| 2026-05-04 03:40 | 42.75095 | 16.97155 | 37140 ft | 479 kts | 121° |
| 2026-05-04 03:40 | 42.71498 | 17.04746 | 37135 ft | 480 kts | 121° |
| 2026-05-04 03:41 | 42.67875 | 17.12373 | 37136 ft | 480 kts | 121° |
| 2026-05-04 03:41 | 42.64241 | 17.20003 | 37139 ft | 480 kts | 121° |
| 2026-05-04 03:42 | 42.60596 | 17.27637 | 37137 ft | 480 kts | 121° |
| 2026-05-04 03:42 | 42.56977 | 17.35197 | 37143 ft | 481 kts | 121° |
| 2026-05-04 03:43 | 42.53319 | 17.42820 | 37143 ft | 481 kts | 121° |
| 2026-05-04 03:43 | 42.49657 | 17.50430 | 37136 ft | 481 kts | 121° |
| 2026-05-04 03:44 | 42.46015 | 17.57979 | 37145 ft | 482 kts | 121° |
| 2026-05-04 03:44 | 42.42339 | 17.65580 | 37141 ft | 482 kts | 121° |
| 2026-05-04 03:45 | 42.38657 | 17.73175 | 37142 ft | 482 kts | 121° |
| 2026-05-04 03:45 | 42.34959 | 17.80783 | 37141 ft | 483 kts | 121° |
| 2026-05-04 03:46 | 42.31284 | 17.88325 | 37142 ft | 483 kts | 121° |
| 2026-05-04 03:46 | 42.27578 | 17.95912 | 37146 ft | 483 kts | 121° |
| 2026-05-04 03:47 | 42.23889 | 18.03444 | 37146 ft | 483 kts | 121° |
| 2026-05-04 03:47 | 42.20161 | 18.11038 | 37145 ft | 483 kts | 121° |
| 2026-05-04 03:48 | 42.16458 | 18.18561 | 37146 ft | 484 kts | 121° |
| 2026-05-04 03:48 | 42.12741 | 18.26095 | 37149 ft | 484 kts | 121° |
| 2026-05-04 03:49 | 42.09000 | 18.33657 | 37151 ft | 484 kts | 121° |
| 2026-05-04 03:49 | 42.05247 | 18.41225 | 37151 ft | 485 kts | 121° |
| 2026-05-04 03:50 | 42.01516 | 18.48732 | 37151 ft | 485 kts | 121° |
| 2026-05-04 03:50 | 41.97743 | 18.56305 | 37151 ft | 486 kts | 121° |
| 2026-05-04 03:51 | 41.93992 | 18.63816 | 37151 ft | 486 kts | 121° |
| 2026-05-04 03:51 | 41.89972 | 18.71153 | 37159 ft | 489 kts | 126° |
| 2026-05-04 03:52 | 41.85628 | 18.78203 | 37156 ft | 490 kts | 127° |
| 2026-05-04 03:52 | 41.81250 | 18.85230 | 37155 ft | 490 kts | 127° |
| 2026-05-04 03:53 | 41.76919 | 18.92253 | 37155 ft | 491 kts | 126° |
| 2026-05-04 03:53 | 41.72575 | 18.99332 | 37152 ft | 491 kts | 126° |
| 2026-05-04 03:54 | 41.68250 | 19.06376 | 37152 ft | 492 kts | 126° |
| 2026-05-04 03:54 | 41.63896 | 19.13448 | 37147 ft | 493 kts | 126° |
| 2026-05-04 03:55 | 41.59513 | 19.20546 | 37141 ft | 493 kts | 126° |
| 2026-05-04 03:55 | 41.55160 | 19.27578 | 37143 ft | 494 kts | 126° |
| 2026-05-04 03:56 | 41.50768 | 19.34656 | 37142 ft | 494 kts | 126° |
| 2026-05-04 03:56 | 41.46387 | 19.41701 | 37149 ft | 495 kts | 126° |
| 2026-05-04 03:57 | 41.41986 | 19.48761 | 37153 ft | 495 kts | 126° |
| 2026-05-04 03:57 | 41.37568 | 19.55832 | 37155 ft | 496 kts | 126° |
| 2026-05-04 03:58 | 41.30948 | 19.66396 | 37159 ft | 497 kts | 126° |
| 2026-05-04 03:58 | 41.26504 | 19.73467 | 37163 ft | 497 kts | 126° |
| 2026-05-04 03:59 | 41.22084 | 19.80484 | 37150 ft | 497 kts | 126° |
| 2026-05-04 03:59 | 41.17633 | 19.87533 | 37141 ft | 498 kts | 126° |
| 2026-05-04 04:00 | 41.13160 | 19.94600 | 37150 ft | 498 kts | 126° |
| 2026-05-04 04:00 | 41.08728 | 20.01588 | 37149 ft | 497 kts | 126° |
| 2026-05-04 04:01 | 41.04259 | 20.08616 | 37157 ft | 497 kts | 127° |
| 2026-05-04 04:01 | 40.99794 | 20.15622 | 37158 ft | 497 kts | 127° |
| 2026-05-04 04:02 | 40.95349 | 20.22581 | 37163 ft | 497 kts | 127° |
| 2026-05-04 04:02 | 40.90871 | 20.29577 | 37170 ft | 497 kts | 127° |
| 2026-05-04 04:03 | 40.86419 | 20.36516 | 37159 ft | 497 kts | 127° |
| 2026-05-04 04:03 | 40.81942 | 20.43475 | 37184 ft | 495 kts | 127° |
| 2026-05-04 04:04 | 40.77500 | 20.50367 | 37179 ft | 495 kts | 127° |
| 2026-05-04 04:04 | 40.73034 | 20.57278 | 37190 ft | 494 kts | 127° |
| 2026-05-04 04:05 | 40.68565 | 20.64183 | 37191 ft | 495 kts | 127° |
| 2026-05-04 04:05 | 40.64080 | 20.71095 | 37203 ft | 497 kts | 127° |
| 2026-05-04 04:06 | 40.59604 | 20.77977 | 37205 ft | 498 kts | 127° |
| 2026-05-04 04:06 | 40.55069 | 20.84935 | 37203 ft | 499 kts | 127° |
| 2026-05-04 04:07 | 40.50571 | 20.91822 | 37200 ft | 500 kts | 127° |
| 2026-05-04 04:07 | 40.46165 | 20.98900 | 37199 ft | 499 kts | 123° |
| 2026-05-04 04:08 | 40.42115 | 21.06293 | 37202 ft | 498 kts | 121° |
| 2026-05-04 04:08 | 40.38125 | 21.13706 | 37196 ft | 499 kts | 121° |
| 2026-05-04 04:09 | 40.34082 | 21.21126 | 37191 ft | 499 kts | 122° |
| 2026-05-04 04:09 | 40.30038 | 21.28466 | 37197 ft | 499 kts | 122° |
| 2026-05-04 04:10 | 40.25958 | 21.35835 | 37190 ft | 498 kts | 122° |
| 2026-05-04 04:10 | 40.21909 | 21.43133 | 37189 ft | 497 kts | 122° |
| 2026-05-04 04:11 | 40.17834 | 21.50467 | 37184 ft | 497 kts | 122° |
| 2026-05-04 04:11 | 40.13794 | 21.57721 | 37189 ft | 496 kts | 122° |
| 2026-05-04 04:12 | 40.09720 | 21.65019 | 37189 ft | 496 kts | 123° |
| 2026-05-04 04:12 | 40.05667 | 21.72264 | 37192 ft | 496 kts | 123° |
| 2026-05-04 04:13 | 40.01575 | 21.79561 | 37178 ft | 496 kts | 123° |
| 2026-05-04 04:13 | 39.97513 | 21.86786 | 37192 ft | 496 kts | 123° |
| 2026-05-04 04:14 | 39.93419 | 21.94053 | 37187 ft | 496 kts | 123° |
| 2026-05-04 04:14 | 39.89351 | 22.01257 | 37202 ft | 496 kts | 123° |
| 2026-05-04 04:15 | 39.85249 | 22.08506 | 37189 ft | 497 kts | 123° |
| 2026-05-04 04:15 | 39.81144 | 22.15740 | 37188 ft | 496 kts | 123° |
| 2026-05-04 04:16 | 39.77057 | 22.22928 | 37187 ft | 496 kts | 123° |
| 2026-05-04 04:16 | 39.72942 | 22.30148 | 37204 ft | 495 kts | 123° |
| 2026-05-04 04:17 | 39.69525 | 22.36133 | 37199 ft | 495 kts | 123° |
| 2026-05-04 04:17 | 39.65407 | 22.43329 | 37203 ft | 495 kts | 123° |
| 2026-05-04 04:18 | 39.61310 | 22.50474 | 37196 ft | 495 kts | 123° |
| 2026-05-04 04:18 | 39.57186 | 22.57647 | 37198 ft | 495 kts | 123° |
| 2026-05-04 04:19 | 39.53079 | 22.64776 | 37185 ft | 495 kts | 123° |
| 2026-05-04 04:19 | 39.48944 | 22.71935 | 37184 ft | 495 kts | 124° |
| 2026-05-04 04:20 | 39.44811 | 22.79077 | 37172 ft | 495 kts | 124° |
| 2026-05-04 04:20 | 39.40695 | 22.86173 | 37171 ft | 495 kts | 124° |
| 2026-05-04 04:21 | 39.36534 | 22.93331 | 37166 ft | 495 kts | 124° |
| 2026-05-04 04:21 | 39.32409 | 23.00411 | 37169 ft | 495 kts | 124° |
| 2026-05-04 04:22 | 39.28256 | 23.07524 | 37167 ft | 496 kts | 124° |
| 2026-05-04 04:22 | 39.24111 | 23.14607 | 37173 ft | 496 kts | 124° |
| 2026-05-04 04:23 | 39.19934 | 23.21729 | 37168 ft | 496 kts | 124° |
| 2026-05-04 04:23 | 39.15780 | 23.28795 | 37160 ft | 497 kts | 125° |
| 2026-05-04 04:24 | 39.11591 | 23.35905 | 37179 ft | 497 kts | 125° |
| 2026-05-04 04:24 | 39.07426 | 23.42962 | 37173 ft | 497 kts | 125° |
| 2026-05-04 04:25 | 39.03228 | 23.50059 | 37170 ft | 497 kts | 125° |
| 2026-05-04 04:25 | 38.99059 | 23.57092 | 37177 ft | 497 kts | 126° |
| 2026-05-04 04:26 | 38.94222 | 23.63423 | 37178 ft | 498 kts | 149° |
| 2026-05-04 04:26 | 38.91116 | 23.65372 | 37170 ft | 496 kts | 162° |
| 2026-05-04 04:26 | 38.87803 | 23.66324 | 37111 ft | 494 kts | 175° |
| 2026-05-04 04:27 | 38.84356 | 23.66819 | 36549 ft | 499 kts | 176° |
| 2026-05-04 04:27 | 38.80902 | 23.67246 | 35937 ft | 498 kts | 176° |
| 2026-05-04 04:27 | 38.77439 | 23.67670 | 35282 ft | 500 kts | 176° |
| 2026-05-04 04:27 | 38.73972 | 23.68118 | 34565 ft | 502 kts | 175° |
| 2026-05-04 04:28 | 38.70478 | 23.68597 | 33784 ft | 506 kts | 175° |
| 2026-05-04 04:28 | 38.67002 | 23.69095 | 32983 ft | 508 kts | 175° |
| 2026-05-04 04:28 | 38.63486 | 23.69611 | 32227 ft | 509 kts | 175° |
| 2026-05-04 04:28 | 38.59969 | 23.70132 | 31457 ft | 510 kts | 175° |
| 2026-05-04 04:29 | 38.56430 | 23.70655 | 30622 ft | 512 kts | 175° |
| 2026-05-04 04:29 | 38.52875 | 23.71179 | 29803 ft | 513 kts | 175° |
| 2026-05-04 04:29 | 38.49333 | 23.71699 | 29161 ft | 508 kts | 175° |
| 2026-05-04 04:29 | 38.45876 | 23.72205 | 28526 ft | 503 kts | 175° |
| 2026-05-04 04:30 | 38.42409 | 23.72711 | 27697 ft | 498 kts | 175° |
| 2026-05-04 04:30 | 38.38995 | 23.73209 | 27267 ft | 490 kts | 175° |
| 2026-05-04 04:30 | 38.35616 | 23.73701 | 26709 ft | 485 kts | 175° |
| 2026-05-04 04:30 | 38.32297 | 23.74183 | 26143 ft | 482 kts | 175° |
| 2026-05-04 04:31 | 38.28974 | 23.74665 | 25577 ft | 478 kts | 175° |
| 2026-05-04 04:31 | 38.25667 | 23.75145 | 24966 ft | 476 kts | 175° |
| 2026-05-04 04:31 | 38.22382 | 23.75621 | 24416 ft | 472 kts | 175° |
| 2026-05-04 04:31 | 38.19112 | 23.75895 | 23806 ft | 467 kts | 187° |
| 2026-05-04 04:32 | 38.16000 | 23.75141 | 23208 ft | 455 kts | 203° |
| 2026-05-04 04:32 | 38.13202 | 23.73423 | 22674 ft | 439 kts | 218° |
| 2026-05-04 04:32 | 38.10863 | 23.71452 | 22165 ft | 432 kts | 219° |
| 2026-05-04 04:32 | 38.08386 | 23.69299 | 21593 ft | 428 kts | 220° |
| 2026-05-04 04:33 | 38.05938 | 23.67175 | 21072 ft | 423 kts | 219° |
| 2026-05-04 04:33 | 38.03538 | 23.65119 | 20542 ft | 420 kts | 219° |
| 2026-05-04 04:33 | 38.01118 | 23.63072 | 20015 ft | 416 kts | 218° |
| 2026-05-04 04:33 | 37.98702 | 23.61043 | 19492 ft | 413 kts | 218° |
| 2026-05-04 04:34 | 37.96310 | 23.59042 | 18982 ft | 409 kts | 218° |
| 2026-05-04 04:34 | 37.93934 | 23.57057 | 18462 ft | 406 kts | 217° |
| 2026-05-04 04:34 | 37.91585 | 23.55097 | 17887 ft | 403 kts | 217° |
| 2026-05-04 04:34 | 37.89281 | 23.53175 | 17327 ft | 400 kts | 217° |
| 2026-05-04 04:35 | 37.86958 | 23.51240 | 16794 ft | 397 kts | 217° |
| 2026-05-04 04:35 | 37.84653 | 23.49320 | 16253 ft | 393 kts | 217° |
| 2026-05-04 04:35 | 37.82378 | 23.47427 | 15745 ft | 390 kts | 217° |
| 2026-05-04 04:35 | 37.80143 | 23.45567 | 15244 ft | 387 kts | 217° |
| 2026-05-04 04:36 | 37.77890 | 23.43695 | 14752 ft | 384 kts | 217° |
| 2026-05-04 04:36 | 37.75666 | 23.41844 | 14267 ft | 381 kts | 217° |
| 2026-05-04 04:36 | 37.73455 | 23.39997 | 13764 ft | 379 kts | 217° |
| 2026-05-04 04:36 | 37.71273 | 23.38172 | 13357 ft | 372 kts | 217° |
| 2026-05-04 04:37 | 37.64994 | 23.32943 | 12507 ft | 351 kts | 217° |
| 2026-05-04 04:37 | 37.62942 | 23.31241 | 12255 ft | 358 kts | 217° |
| 2026-05-04 04:38 | 37.60826 | 23.29475 | 12000 ft | 368 kts | 217° |
| 2026-05-04 04:38 | 37.58699 | 23.27698 | 11759 ft | 371 kts | 217° |
| 2026-05-04 04:38 | 37.56555 | 23.25904 | 11511 ft | 368 kts | 217° |
| 2026-05-04 04:38 | 37.54422 | 23.24124 | 11257 ft | 366 kts | 217° |
| 2026-05-04 04:39 | 37.52298 | 23.22351 | 11007 ft | 365 kts | 217° |
| 2026-05-04 04:39 | 37.50180 | 23.20577 | 10764 ft | 364 kts | 217° |
| 2026-05-04 04:39 | 37.48077 | 23.18813 | 10505 ft | 363 kts | 217° |
| 2026-05-04 04:39 | 37.45969 | 23.17046 | 10255 ft | 362 kts | 217° |
| 2026-05-04 04:40 | 37.43898 | 23.15307 | 10008 ft | 360 kts | 217° |
| 2026-05-04 04:40 | 37.41825 | 23.13561 | 9733 ft | 352 kts | 217° |
| 2026-05-04 04:40 | 37.39834 | 23.11882 | 9461 ft | 344 kts | 216° |
| 2026-05-04 04:40 | 37.37867 | 23.10228 | 9185 ft | 336 kts | 217° |
| 2026-05-04 04:41 | 37.35944 | 23.08611 | 8920 ft | 329 kts | 217° |
| 2026-05-04 04:41 | 37.34059 | 23.07024 | 8644 ft | 323 kts | 217° |
| 2026-05-04 04:41 | 37.32202 | 23.05463 | 8379 ft | 317 kts | 217° |
| 2026-05-04 04:41 | 37.30388 | 23.03937 | 8122 ft | 311 kts | 217° |
| 2026-05-04 04:42 | 37.28602 | 23.02433 | 7858 ft | 306 kts | 217° |
| 2026-05-04 04:42 | 37.26867 | 23.00973 | 7602 ft | 302 kts | 217° |
| 2026-05-04 04:42 | 37.25135 | 22.99515 | 7349 ft | 297 kts | 217° |
| 2026-05-04 04:42 | 37.23421 | 22.98076 | 7104 ft | 294 kts | 217° |
| 2026-05-04 04:43 | 37.21734 | 22.96660 | 6853 ft | 290 kts | 217° |
| 2026-05-04 04:43 | 37.20064 | 22.95252 | 6604 ft | 287 kts | 217° |
| 2026-05-04 04:43 | 37.18441 | 22.93881 | 6349 ft | 283 kts | 217° |
| 2026-05-04 04:43 | 37.16821 | 22.92515 | 6214 ft | 275 kts | 217° |
| 2026-05-04 04:44 | 37.15252 | 22.91192 | 6179 ft | 267 kts | 217° |
| 2026-05-04 04:44 | 37.13712 | 22.89897 | 6181 ft | 266 kts | 217° |
| 2026-05-04 04:44 | 37.12152 | 22.88588 | 6199 ft | 272 kts | 217° |
| 2026-05-04 04:44 | 37.10568 | 22.87259 | 6193 ft | 274 kts | 217° |
| 2026-05-04 04:45 | 37.09008 | 22.85942 | 6193 ft | 273 kts | 217° |
| 2026-05-04 04:45 | 37.07427 | 22.84611 | 6189 ft | 274 kts | 217° |
| 2026-05-04 04:45 | 37.05845 | 22.83276 | 6192 ft | 274 kts | 217° |
| 2026-05-04 04:47 | 36.96424 | 22.75326 | 6208 ft | 274 kts | 217° |
| 2026-05-04 04:47 | 36.94840 | 22.73987 | 6200 ft | 275 kts | 217° |
| 2026-05-04 04:47 | 36.93251 | 22.72645 | 6212 ft | 276 kts | 217° |
| 2026-05-04 04:47 | 36.91677 | 22.71319 | 6197 ft | 277 kts | 217° |
| 2026-05-04 04:48 | 36.90072 | 22.69968 | 6187 ft | 276 kts | 217° |
| 2026-05-04 04:49 | 36.82954 | 22.69066 | 6216 ft | 275 kts | 142° |
| 2026-05-04 04:49 | 36.81637 | 22.70756 | 6217 ft | 270 kts | 119° |
| 2026-05-04 04:49 | 36.80936 | 22.72858 | 6220 ft | 264 kts | 97° |
| 2026-05-04 04:49 | 36.80923 | 22.75114 | 6223 ft | 257 kts | 74° |
| 2026-05-04 04:50 | 36.81591 | 22.77145 | 6204 ft | 252 kts | 52° |
| 2026-05-04 04:50 | 36.82792 | 22.78696 | 6215 ft | 248 kts | 37° |
| 2026-05-04 04:50 | 36.84150 | 22.80039 | 6206 ft | 248 kts | 35° |
| 2026-05-04 04:50 | 36.85504 | 22.81342 | 6210 ft | 248 kts | 35° |
| 2026-05-04 04:51 | 36.86882 | 22.82662 | 6197 ft | 249 kts | 35° |
| 2026-05-04 04:51 | 36.88264 | 22.83984 | 6202 ft | 249 kts | 35° |
| 2026-05-04 04:51 | 36.89639 | 22.85297 | 6197 ft | 248 kts | 35° |
| 2026-05-04 04:51 | 36.90994 | 22.86589 | 6183 ft | 247 kts | 34° |
| 2026-05-04 04:52 | 36.92356 | 22.87889 | 6200 ft | 246 kts | 35° |
| 2026-05-04 04:52 | 36.93716 | 22.89185 | 6215 ft | 246 kts | 34° |
| 2026-05-04 04:52 | 36.95056 | 22.90543 | 6203 ft | 249 kts | 38° |
| 2026-05-04 04:52 | 36.96370 | 22.91960 | 6192 ft | 249 kts | 38° |
| 2026-05-04 04:53 | 36.97676 | 22.93384 | 6200 ft | 249 kts | 38° |
| 2026-05-04 04:53 | 36.98986 | 22.94812 | 6184 ft | 249 kts | 38° |
| 2026-05-04 04:53 | 37.00287 | 22.96231 | 6167 ft | 246 kts | 38° |
| 2026-05-04 04:53 | 37.01559 | 22.97614 | 6198 ft | 245 kts | 38° |
| 2026-05-04 04:54 | 37.02858 | 22.99021 | 6195 ft | 248 kts | 38° |
| 2026-05-04 04:54 | 37.04167 | 23.00438 | 6199 ft | 249 kts | 38° |
| 2026-05-04 04:54 | 37.05483 | 23.01862 | 6194 ft | 250 kts | 38° |
| 2026-05-04 04:54 | 37.06797 | 23.03283 | 6196 ft | 249 kts | 38° |
| 2026-05-04 04:55 | 37.08097 | 23.04691 | 6193 ft | 249 kts | 38° |
| 2026-05-04 04:55 | 37.09409 | 23.06111 | 6192 ft | 249 kts | 38° |
| 2026-05-04 04:55 | 37.10720 | 23.07531 | 6188 ft | 248 kts | 38° |
| 2026-05-04 04:55 | 37.12021 | 23.08940 | 6191 ft | 247 kts | 38° |
| 2026-05-04 04:56 | 37.13324 | 23.10351 | 6185 ft | 247 kts | 38° |
| 2026-05-04 04:56 | 37.14628 | 23.11764 | 6192 ft | 247 kts | 38° |
| 2026-05-04 04:56 | 37.15923 | 23.13168 | 6191 ft | 246 kts | 38° |
| 2026-05-04 04:56 | 37.17220 | 23.14575 | 6186 ft | 246 kts | 38° |
| 2026-05-04 04:57 | 37.18496 | 23.15959 | 6191 ft | 246 kts | 38° |
| 2026-05-04 04:57 | 37.19793 | 23.17366 | 6185 ft | 246 kts | 38° |
| 2026-05-04 04:57 | 37.21089 | 23.18774 | 6189 ft | 247 kts | 38° |
| 2026-05-04 04:57 | 37.22388 | 23.20185 | 6193 ft | 247 kts | 38° |
| 2026-05-04 04:58 | 37.23690 | 23.21600 | 6186 ft | 247 kts | 38° |
| 2026-05-04 04:58 | 37.24991 | 23.23014 | 6185 ft | 247 kts | 38° |
| 2026-05-04 04:58 | 37.26286 | 23.24423 | 6186 ft | 246 kts | 38° |
| 2026-05-04 04:58 | 37.27586 | 23.25838 | 6191 ft | 246 kts | 38° |
| 2026-05-04 04:59 | 37.28880 | 23.27247 | 6185 ft | 246 kts | 38° |
| 2026-05-04 04:59 | 37.30156 | 23.28638 | 6180 ft | 246 kts | 38° |
| 2026-05-04 04:59 | 37.31449 | 23.30047 | 6184 ft | 245 kts | 37° |
| 2026-05-04 04:59 | 37.32740 | 23.31455 | 6173 ft | 245 kts | 38° |
| 2026-05-04 05:00 | 37.34029 | 23.32862 | 6196 ft | 246 kts | 38° |
| 2026-05-04 05:00 | 37.35360 | 23.34311 | 6200 ft | 265 kts | 38° |
| 2026-05-04 05:00 | 37.37935 | 23.37113 | 6183 ft | 289 kts | 38° |
| 2026-05-04 05:01 | 37.39332 | 23.38643 | 6168 ft | 282 kts | 38° |
| 2026-05-04 05:01 | 37.40785 | 23.40237 | 6164 ft | 272 kts | 38° |
| 2026-05-04 05:01 | 37.42179 | 23.41769 | 6163 ft | 260 kts | 38° |
| 2026-05-04 05:01 | 37.43516 | 23.43236 | 6165 ft | 249 kts | 37° |
| 2026-05-04 05:02 | 37.44672 | 23.44505 | 6167 ft | 242 kts | 37° |
| 2026-05-04 05:02 | 37.45934 | 23.45888 | 6169 ft | 240 kts | 37° |
| 2026-05-04 05:02 | 37.47188 | 23.47260 | 6191 ft | 244 kts | 37° |
| 2026-05-04 05:02 | 37.48482 | 23.48676 | 6179 ft | 246 kts | 37° |
| 2026-05-04 05:03 | 37.49769 | 23.50087 | 6102 ft | 246 kts | 37° |
| 2026-05-04 05:03 | 37.51061 | 23.51505 | 6042 ft | 246 kts | 37° |
| 2026-05-04 05:04 | 37.54886 | 23.55708 | 6001 ft | 244 kts | 37° |
| 2026-05-04 05:04 | 37.56172 | 23.57122 | 6005 ft | 244 kts | 37° |
| 2026-05-04 05:04 | 37.57459 | 23.58538 | 5995 ft | 245 kts | 37° |
| 2026-05-04 05:06 | 37.65964 | 23.67914 | 5980 ft | 235 kts | 37° |
| 2026-05-04 05:06 | 37.67165 | 23.69245 | 5983 ft | 222 kts | 37° |
| 2026-05-04 05:06 | 37.68295 | 23.70495 | 5969 ft | 209 kts | 36° |
| 2026-05-04 05:07 | 37.69703 | 23.72051 | 5983 ft | 200 kts | 36° |
| 2026-05-04 05:07 | 37.70755 | 23.73213 | 5997 ft | 200 kts | 36° |
| 2026-05-04 05:07 | 37.71454 | 23.74000 | 5804 ft | 201 kts | 37° |
| 2026-05-04 05:09 | 37.80247 | 23.82742 | 3379 ft | 199 kts | 33° |
| 2026-05-04 05:09 | 37.81340 | 23.83789 | 3099 ft | 194 kts | 34° |
| 2026-05-04 05:10 | 37.82409 | 23.84812 | 2837 ft | 190 kts | 34° |
| 2026-05-04 05:10 | 37.83441 | 23.85800 | 2577 ft | 181 kts | 34° |
| 2026-05-04 05:10 | 37.84412 | 23.86729 | 2332 ft | 172 kts | 34° |
| 2026-05-04 05:10 | 37.85356 | 23.87631 | 2112 ft | 169 kts | 34° |
| 2026-05-04 05:11 | 37.86293 | 23.88527 | 1898 ft | 168 kts | 34° |
| 2026-05-04 05:11 | 37.87204 | 23.89398 | 1653 ft | 160 kts | 35° |
| 2026-05-04 05:11 | 37.88075 | 23.90231 | 1375 ft | 155 kts | 34° |
| 2026-05-04 05:11 | 37.88914 | 23.91010 | 1230 ft | 150 kts | 33° |
| 2026-05-04 05:12 | 37.89770 | 23.91811 | 1010 ft | 154 kts | 35° |
| 2026-05-04 05:12 | 37.90618 | 23.92640 | 805 ft | 154 kts | 36° |
| 2026-05-04 05:12 | 37.91465 | 23.93463 | 576 ft | 153 kts | 35° |
| 2026-05-04 05:12 | 37.92309 | 23.94284 | 385 ft | 153 kts | 34° |
| 2026-05-04 05:13 | 37.93140 | 23.95074 | 301 ft | 143 kts | 34° |
| 2026-05-04 05:13 | 37.93827 | 23.95725 | 278 ft | 93 kts | 37° |
| 2026-05-04 05:13 | 37.94193 | 23.96073 | 287 ft | 47 kts | 38° |
| 2026-05-04 05:13 | 37.94435 | 23.96275 | 288 ft | 39 kts | 21° |
| 2026-05-04 05:14 | 37.94605 | 23.96320 | 299 ft | 12 kts | 4° |
| 2026-05-04 05:14 | 37.94652 | 23.96255 | 301 ft | 12 kts | 260° |
| 2026-05-04 05:14 | 37.94598 | 23.96181 | 300 ft | 11 kts | 218° |
| 2026-05-04 05:14 | 37.94536 | 23.96120 | 300 ft | 11 kts | 216° |
| 2026-05-04 05:15 | 37.94474 | 23.96062 | 297 ft | 11 kts | 217° |
| 2026-05-04 05:15 | 37.94416 | 23.96006 | 299 ft | 11 kts | 217° |
| 2026-05-04 05:15 | 37.94358 | 23.95950 | 297 ft | 10 kts | 218° |
| 2026-05-04 05:15 | 37.94303 | 23.95896 | 299 ft | 10 kts | 216° |
| 2026-05-04 05:16 | 37.94248 | 23.95846 | 300 ft | 10 kts | 216° |
| 2026-05-04 05:16 | 37.94189 | 23.95791 | 296 ft | 12 kts | 216° |
| 2026-05-04 05:16 | 37.94108 | 23.95715 | 298 ft | 16 kts | 217° |
| 2026-05-04 05:16 | 37.94015 | 23.95627 | 295 ft | 16 kts | 217° |
| 2026-05-04 05:17 | 37.93935 | 23.95551 | 296 ft | 10 kts | 217° |
| 2026-05-04 05:17 | 37.93881 | 23.95499 | 297 ft | 10 kts | 217° |
| 2026-05-04 05:17 | 37.93851 | 23.95433 | 296 ft | 9 kts | 279° |
| 2026-05-04 05:17 | 37.93883 | 23.95365 | 299 ft | 9 kts | 307° |
| 2026-05-04 05:18 | 37.93921 | 23.95302 | 300 ft | 9 kts | 308° |
| 2026-05-04 05:18 | 37.93957 | 23.95241 | 300 ft | 9 kts | 306° |
| 2026-05-04 05:18 | 37.93991 | 23.95181 | 300 ft | 8 kts | 306° |
| 2026-05-04 05:18 | 37.94036 | 23.95173 | 300 ft | 7 kts | 33° |
| 2026-05-04 05:19 | 37.94069 | 23.95203 | 302 ft | 2 kts | 37° |
| 2026-05-04 05:19 | 37.94071 | 23.95205 | 302 ft | 0 kts | 37° |